createdAt,value
2023-04-02T00:01:55.960Z,302
2023-04-02T00:04:03.571Z,302
2023-04-02T00:06:16.535Z,302
2023-04-02T00:08:25.601Z,302
2023-04-02T00:10:36.943Z,302
2023-04-02T00:12:48.991Z,302
2023-04-02T00:14:59.647Z,301
2023-04-02T00:17:10.744Z,301
2023-04-02T00:19:17.424Z,301
2023-04-02T00:21:30.877Z,302
2023-04-02T00:23:45.892Z,302
2023-04-02T00:25:52.940Z,301
2023-04-02T00:28:03.804Z,301
2023-04-02T00:30:13.411Z,302
2023-04-02T00:32:21.624Z,302
2023-04-02T00:34:28.585Z,302
2023-04-02T00:36:40.031Z,302
2023-04-02T00:38:51.867Z,302
2023-04-02T00:41:46.897Z,302
2023-04-02T00:43:57.450Z,302
2023-04-02T00:46:10.824Z,302
2023-04-02T00:48:29.921Z,302
2023-04-02T00:50:37.862Z,302
2023-04-02T00:52:48.809Z,301
2023-04-02T00:54:55.802Z,302
2023-04-02T00:57:07.776Z,302
2023-04-02T00:59:17.635Z,301
2023-04-02T01:01:24.716Z,302
2023-04-02T01:03:38.447Z,301
2023-04-02T01:05:47.147Z,302
2023-04-02T01:07:58.430Z,302
2023-04-02T01:10:10.285Z,302
2023-04-02T01:12:17.890Z,302
2023-04-02T01:14:29.915Z,302
2023-04-02T01:16:41.194Z,302
2023-04-02T01:18:56.123Z,301
2023-04-02T01:21:06.672Z,301
2023-04-02T01:23:17.781Z,303
2023-04-02T01:25:26.602Z,303
2023-04-02T01:27:44.023Z,303
2023-04-02T01:29:53.780Z,303
2023-04-02T01:32:04.132Z,303
2023-04-02T01:34:14.239Z,303
2023-04-02T01:36:31.334Z,303
2023-04-02T01:38:43.549Z,303
2023-04-02T01:40:50.808Z,303
2023-04-02T01:42:58.437Z,303
2023-04-02T01:45:08.196Z,303
2023-04-02T01:47:18.415Z,303
2023-04-02T01:49:25.416Z,303
2023-04-02T01:51:32.791Z,303
2023-04-02T01:53:46.244Z,303
2023-04-02T01:55:55.174Z,303
2023-04-02T01:58:07.263Z,303
2023-04-02T02:00:16.696Z,303
2023-04-02T02:02:27.124Z,303
2023-04-02T02:04:35.234Z,303
2023-04-02T02:06:44.802Z,303
2023-04-02T02:08:57.457Z,303
2023-04-02T02:11:06.861Z,303
2023-04-02T02:13:14.030Z,303
2023-04-02T02:15:24.341Z,303
2023-04-02T02:17:32.251Z,303
2023-04-02T02:19:47.317Z,303
2023-04-02T02:21:58.231Z,303
2023-04-02T02:24:15.876Z,303
2023-04-02T02:26:25.434Z,303
2023-04-02T02:28:36.887Z,303
2023-04-02T02:30:43.622Z,303
2023-04-02T02:32:54.807Z,303
2023-04-02T02:35:06.499Z,303
2023-04-02T02:37:14.887Z,303
2023-04-02T02:39:22.051Z,303
2023-04-02T02:41:31.970Z,303
2023-04-02T02:43:41.728Z,303
2023-04-02T02:45:57.751Z,303
2023-04-02T02:48:07.153Z,303
2023-04-02T02:50:13.744Z,303
2023-04-02T02:52:27.380Z,303
2023-04-02T02:54:41.375Z,303
2023-04-02T02:56:53.427Z,303
2023-04-02T02:59:00.790Z,304
2023-04-02T03:01:08.466Z,303
2023-04-02T03:03:24.735Z,303
2023-04-02T03:05:32.196Z,303
2023-04-02T03:07:40.075Z,303
2023-04-02T03:09:53.789Z,303
2023-04-02T03:12:12.984Z,303
2023-04-02T03:14:24.965Z,304
2023-04-02T03:16:35.175Z,303
2023-04-02T03:18:47.473Z,303
2023-04-02T03:20:59.418Z,303
2023-04-02T03:23:09.138Z,303
2023-04-02T03:25:23.906Z,301
2023-04-02T03:27:35.286Z,302
2023-04-02T03:29:44.873Z,301
2023-04-02T03:31:51.389Z,303
2023-04-02T03:34:07.324Z,303
2023-04-02T03:36:16.833Z,303
2023-04-02T03:38:26.943Z,303
2023-04-02T03:40:37.513Z,303
2023-04-02T03:42:52.255Z,303
2023-04-02T03:44:59.278Z,303
2023-04-02T03:47:08.922Z,303
2023-04-02T03:49:26.660Z,303
2023-04-02T03:51:41.952Z,303
2023-04-02T03:53:52.108Z,303
2023-04-02T03:56:01.577Z,303
2023-04-02T03:58:11.166Z,303
2023-04-02T04:00:20.324Z,303
2023-04-02T04:02:30.399Z,303
2023-04-02T04:04:39.574Z,303
2023-04-02T04:06:57.925Z,303
2023-04-02T04:09:09.836Z,303
2023-04-02T04:11:22.091Z,303
2023-04-02T04:13:31.399Z,303
2023-04-02T04:15:45.718Z,303
2023-04-02T04:17:53.257Z,303
2023-04-02T04:20:00.362Z,303
2023-04-02T04:22:18.340Z,303
2023-04-02T04:24:29.756Z,303
2023-04-02T04:26:41.036Z,303
2023-04-02T04:28:56.121Z,303
2023-04-02T04:31:07.754Z,303
2023-04-02T04:33:16.910Z,303
2023-04-02T04:35:24.165Z,303
2023-04-02T04:37:31.777Z,303
2023-04-02T04:39:46.478Z,303
2023-04-02T04:41:59.908Z,303
2023-04-02T04:44:12.266Z,303
2023-04-02T04:46:21.297Z,303
2023-04-02T04:48:28.999Z,303
2023-04-02T04:50:44.149Z,303
2023-04-02T04:52:58.838Z,303
2023-04-02T04:55:11.511Z,303
2023-04-02T04:57:27.523Z,303
2023-04-02T04:59:39.029Z,303
2023-04-02T05:01:50.045Z,303
2023-04-02T05:04:07.145Z,303
2023-04-02T05:06:20.963Z,303
2023-04-02T05:08:34.123Z,303
2023-04-02T05:10:46.694Z,303
2023-04-02T05:12:53.872Z,303
2023-04-02T05:15:07.459Z,303
2023-04-02T05:17:14.620Z,303
2023-04-02T05:19:31.092Z,303
2023-04-02T05:21:43.104Z,303
2023-04-02T05:23:50.671Z,303
2023-04-02T05:25:59.567Z,303
2023-04-02T05:28:10.277Z,303
2023-04-02T05:30:21.528Z,303
2023-04-02T05:32:33.418Z,302
2023-04-02T05:34:45.266Z,302
2023-04-02T05:36:59.971Z,303
2023-04-02T05:39:10.194Z,302
2023-04-02T05:41:33.587Z,302
2023-04-02T05:43:42.582Z,302
2023-04-02T05:45:49.865Z,302
2023-04-02T05:48:00.233Z,306
2023-04-02T05:50:11.681Z,303
2023-04-02T05:52:22.675Z,302
2023-04-02T05:54:37.850Z,303
2023-04-02T05:56:50.442Z,304
2023-04-02T05:59:08.594Z,307
2023-04-02T06:01:37.274Z,306
2023-04-02T06:04:11.280Z,306
2023-04-02T06:06:18.853Z,306
2023-04-02T06:08:25.581Z,306
2023-04-02T06:10:38.081Z,306
2023-04-02T06:12:48.872Z,305
2023-04-02T06:15:03.815Z,304
2023-04-02T06:17:43.997Z,305
2023-04-02T06:19:58.568Z,305
2023-04-02T06:22:32.895Z,304
2023-04-02T06:24:55.738Z,306
2023-04-02T06:27:17.646Z,302
2023-04-02T06:29:25.355Z,305
2023-04-02T06:31:32.776Z,303
2023-04-02T06:33:40.043Z,302
2023-04-02T06:35:47.286Z,305
2023-04-02T06:38:00.025Z,304
2023-04-02T06:43:25.188Z,304
2023-04-02T06:45:35.477Z,303
2023-04-02T06:47:43.022Z,303
2023-04-02T06:49:53.785Z,300
2023-04-02T06:52:03.856Z,305
2023-04-02T06:54:25.701Z,304
2023-04-02T06:56:33.075Z,303
2023-04-02T06:58:43.917Z,303
2023-04-02T07:00:51.489Z,304
2023-04-02T07:03:02.008Z,306
2023-04-02T07:05:10.324Z,306
2023-04-02T07:07:32.305Z,305
2023-04-02T07:09:41.948Z,306
2023-04-02T07:11:51.997Z,305
2023-04-02T07:14:02.614Z,306
2023-04-02T07:16:16.509Z,306
2023-04-02T07:18:28.990Z,304
2023-04-02T07:20:37.576Z,305
2023-04-02T07:22:46.406Z,306
2023-04-02T07:24:57.640Z,303
2023-04-02T07:27:05.832Z,305
2023-04-02T07:29:16.493Z,306
2023-04-02T07:31:28.876Z,304
2023-04-02T07:33:42.108Z,306
2023-04-02T07:35:50.400Z,306
2023-04-02T07:37:58.835Z,304
2023-04-02T07:40:09.024Z,306
2023-04-02T07:42:16.880Z,306
2023-04-02T07:44:24.373Z,305
2023-04-02T07:46:36.441Z,306
2023-04-02T07:48:47.214Z,306
2023-04-02T07:51:10.682Z,306
2023-04-02T07:53:18.871Z,306
2023-04-02T07:55:28.787Z,306
2023-04-02T07:57:39.474Z,306
2023-04-02T07:59:56.471Z,306
2023-04-02T08:02:03.962Z,306
2023-04-02T08:04:21.543Z,306
2023-04-02T08:06:32.344Z,306
2023-04-02T08:08:41.486Z,305
2023-04-02T08:10:49.712Z,305
2023-04-02T08:12:57.245Z,306
2023-04-02T08:15:09.475Z,306
2023-04-02T08:17:17.484Z,306
2023-04-02T08:19:25.472Z,306
2023-04-02T08:21:36.724Z,306
2023-04-02T08:23:51.024Z,306
2023-04-02T08:25:58.739Z,306
2023-04-02T08:28:06.375Z,306
2023-04-02T08:30:14.072Z,306
2023-04-02T08:32:22.839Z,306
2023-04-02T08:34:32.305Z,301
2023-04-02T08:36:40.762Z,303
2023-04-02T08:38:51.635Z,303
2023-04-02T08:41:07.351Z,303
2023-04-02T08:43:15.992Z,303
2023-04-02T08:45:28.282Z,303
2023-04-02T08:47:36.443Z,303
2023-04-02T08:49:45.013Z,303
2023-04-02T08:51:55.958Z,303
2023-04-02T08:54:04.798Z,303
2023-04-02T08:56:12.920Z,303
2023-04-02T08:58:20.310Z,303
2023-04-02T09:00:28.183Z,303
2023-04-02T09:02:36.839Z,303
2023-04-02T09:04:44.071Z,303
2023-04-02T09:06:51.637Z,303
2023-04-02T09:08:59.309Z,303
2023-04-02T09:11:07.709Z,297
2023-04-02T09:13:28.374Z,307
2023-04-02T09:15:40.391Z,307
2023-04-02T09:18:00.863Z,307
2023-04-02T09:20:15.016Z,306
2023-04-02T09:22:25.606Z,306
2023-04-02T09:24:34.104Z,306
2023-04-02T09:26:42.618Z,306
2023-04-02T09:28:53.622Z,307
2023-04-02T09:31:01.290Z,307
2023-04-02T09:33:15.789Z,303
2023-04-02T09:35:33.941Z,307
2023-04-02T09:37:44.089Z,306
2023-04-02T09:39:52.076Z,306
2023-04-02T09:42:12.719Z,306
2023-04-02T09:44:24.049Z,306
2023-04-02T09:46:35.361Z,306
2023-04-02T09:48:43.002Z,306
2023-04-02T09:50:51.314Z,306
2023-04-02T09:53:18.036Z,306
2023-04-02T09:55:32.940Z,306
2023-04-02T09:57:43.705Z,307
2023-04-02T09:59:52.183Z,302
2023-04-02T10:02:03.442Z,306
2023-04-02T10:04:12.798Z,306
2023-04-02T10:06:20.456Z,306
2023-04-02T10:08:33.716Z,306
2023-04-02T10:10:41.442Z,306
2023-04-02T10:12:53.712Z,306
2023-04-02T10:15:06.626Z,306
2023-04-02T10:17:17.947Z,306
2023-04-02T10:19:26.693Z,306
2023-04-02T10:21:36.754Z,306
2023-04-02T10:23:44.574Z,306
2023-04-02T10:25:53.345Z,306
2023-04-02T10:28:21.121Z,306
2023-04-02T10:30:53.572Z,306
2023-04-02T10:34:13.524Z,306
2023-04-02T10:36:39.438Z,306
2023-04-02T10:39:13.494Z,306
2023-04-02T10:41:24.536Z,306
2023-04-02T10:43:49.978Z,306
2023-04-02T10:45:59.196Z,306
2023-04-02T10:48:09.321Z,306
2023-04-02T10:50:26.137Z,306
2023-04-02T10:52:36.063Z,307
2023-04-02T10:54:47.169Z,306
2023-04-02T10:56:55.242Z,306
2023-04-02T10:59:05.868Z,306
2023-04-02T11:01:14.548Z,306
2023-04-02T11:03:24.408Z,306
2023-04-02T11:05:37.006Z,306
2023-04-02T11:07:47.993Z,306
2023-04-02T11:09:58.750Z,307
2023-04-02T11:12:13.610Z,306
2023-04-02T11:14:29.044Z,302
2023-04-02T11:16:45.915Z,300
2023-04-02T11:18:54.999Z,292
2023-04-02T11:21:03.241Z,302
2023-04-02T11:23:16.788Z,307
2023-04-02T11:25:31.234Z,289
2023-04-02T11:27:41.443Z,306
2023-04-02T11:29:51.425Z,308
2023-04-02T11:32:05.296Z,306
2023-04-02T11:34:17.022Z,308
2023-04-02T11:36:28.839Z,307
2023-04-02T11:38:38.050Z,307
2023-04-02T11:40:49.337Z,308
2023-04-02T11:42:58.051Z,308
2023-04-02T11:45:13.506Z,308
2023-04-02T11:47:23.029Z,308
2023-04-02T11:49:32.468Z,308
2023-04-02T11:51:40.919Z,307
2023-04-02T11:53:49.966Z,307
2023-04-02T11:55:58.838Z,307
2023-04-02T11:58:06.421Z,307
2023-04-02T12:00:16.261Z,307
2023-04-02T12:02:27.367Z,307
2023-04-02T12:04:36.080Z,307
2023-04-02T12:06:44.265Z,307
2023-04-02T12:09:01.713Z,306
2023-04-02T12:11:10.452Z,306
2023-04-02T12:13:19.183Z,300
2023-04-02T12:15:27.174Z,308
2023-04-02T12:17:36.749Z,309
2023-04-02T12:19:46.020Z,308
2023-04-02T12:21:55.677Z,308
2023-04-02T12:24:03.453Z,308
2023-04-02T12:26:11.799Z,308
2023-04-02T12:28:21.956Z,308
2023-04-02T12:30:31.349Z,308
2023-04-02T12:32:41.642Z,308
2023-04-02T12:34:51.912Z,308
2023-04-02T12:36:59.839Z,308
2023-04-02T12:39:07.837Z,308
2023-04-02T12:41:16.165Z,308
2023-04-02T12:43:24.670Z,308
2023-04-02T12:45:34.119Z,308
2023-04-02T12:47:42.340Z,309
2023-04-02T12:49:50.241Z,306
2023-04-02T12:51:59.051Z,307
2023-04-02T12:54:07.668Z,306
2023-04-02T12:56:15.871Z,306
2023-04-02T12:58:24.502Z,306
2023-04-02T13:00:34.376Z,306
2023-04-02T13:02:46.235Z,306
2023-04-02T13:04:54.427Z,304
2023-04-02T13:07:05.468Z,303
2023-04-02T13:09:14.831Z,282
2023-04-02T13:11:23.932Z,286
2023-04-02T13:13:32.883Z,290
2023-04-02T13:15:42.998Z,288
2023-04-02T13:17:52.117Z,288
2023-04-02T13:20:00.236Z,284
2023-04-02T13:22:10.089Z,284
2023-04-02T13:24:21.117Z,286
2023-04-02T13:26:44.738Z,284
2023-04-02T13:29:03.885Z,310
2023-04-02T13:31:13.710Z,307
2023-04-02T13:33:24.986Z,308
2023-04-02T13:35:34.325Z,308
2023-04-02T13:37:43.222Z,309
2023-04-02T13:39:51.340Z,308
2023-04-02T13:42:01.370Z,309
2023-04-02T13:44:09.882Z,309
2023-04-02T13:46:19.901Z,309
2023-04-02T13:48:30.028Z,309
2023-04-02T13:50:40.024Z,309
2023-04-02T13:52:50.145Z,309
2023-04-02T13:54:59.094Z,309
2023-04-02T13:57:08.957Z,309
2023-04-02T13:59:17.083Z,309
2023-04-02T14:01:26.115Z,309
2023-04-02T14:03:35.612Z,309
2023-04-02T14:05:45.026Z,309
2023-04-02T14:07:56.305Z,309
2023-04-02T14:10:04.895Z,309
2023-04-02T14:12:17.957Z,309
2023-04-02T14:14:27.707Z,309
2023-04-02T14:16:38.087Z,309
2023-04-02T14:18:46.787Z,309
2023-04-02T14:20:58.036Z,309
2023-04-02T14:23:07.357Z,309
2023-04-02T14:25:15.014Z,309
2023-04-02T14:27:24.850Z,309
2023-04-02T14:29:34.133Z,309
2023-04-02T14:31:43.553Z,309
2023-04-02T14:33:53.119Z,309
2023-04-02T14:36:03.125Z,309
2023-04-02T14:38:13.266Z,309
2023-04-02T14:40:26.469Z,309
2023-04-02T14:42:36.366Z,309
2023-04-02T14:44:45.882Z,309
2023-04-02T14:46:54.908Z,309
2023-04-02T14:49:07.174Z,309
2023-04-02T14:51:15.781Z,309
2023-04-02T14:53:25.056Z,309
2023-04-02T14:55:34.502Z,309
2023-04-02T14:57:42.719Z,309
2023-04-02T14:59:57.804Z,309
2023-04-02T15:02:22.201Z,309
2023-04-02T15:04:47.396Z,309
2023-04-02T15:07:10.405Z,309
2023-04-02T15:09:21.228Z,309
2023-04-02T15:11:31.596Z,309
2023-04-02T15:13:48.079Z,309
2023-04-02T15:16:05.213Z,309
2023-04-02T15:18:18.123Z,309
2023-04-02T15:20:28.042Z,309
2023-04-02T15:22:38.125Z,309
2023-04-02T15:24:46.964Z,309
2023-04-02T15:26:57.471Z,309
2023-04-02T15:29:13.294Z,309
2023-04-02T15:31:38.550Z,309
2023-04-02T15:33:49.754Z,309
2023-04-02T15:36:01.618Z,309
2023-04-02T15:38:10.969Z,309
2023-04-02T15:40:20.131Z,309
2023-04-02T15:42:30.369Z,309
2023-04-02T15:44:39.695Z,309
2023-04-02T15:46:51.052Z,309
2023-04-02T15:49:04.013Z,309
2023-04-02T15:51:15.473Z,309
2023-04-02T15:53:25.149Z,309
2023-04-02T15:55:35.100Z,309
2023-04-02T15:57:45.690Z,309
2023-04-02T15:59:55.683Z,309
2023-04-02T16:02:05.626Z,309
2023-04-02T16:04:18.127Z,309
2023-04-02T16:06:34.653Z,309
2023-04-02T16:08:45.122Z,309
2023-04-02T16:10:56.496Z,309
2023-04-02T16:13:11.131Z,309
2023-04-02T16:15:22.197Z,309
2023-04-02T16:17:40.115Z,309
2023-04-02T16:19:55.626Z,309
2023-04-02T16:22:07.173Z,309
2023-04-02T16:24:22.181Z,309
2023-04-02T16:26:31.649Z,309
2023-04-02T16:28:55.708Z,309
2023-04-02T16:31:08.104Z,309
2023-04-02T16:33:19.564Z,309
2023-04-02T16:35:42.934Z,309
2023-04-02T16:38:04.242Z,309
2023-04-02T16:40:21.568Z,309
2023-04-02T16:42:35.844Z,309
2023-04-02T16:44:54.282Z,309
2023-04-02T16:47:10.493Z,309
2023-04-02T16:49:24.887Z,309
2023-04-02T16:51:36.595Z,309
2023-04-02T16:54:05.223Z,309
2023-04-02T16:56:17.086Z,309
2023-04-02T16:58:28.497Z,309
2023-04-02T17:00:41.892Z,309
2023-04-02T17:02:51.609Z,309
2023-04-02T17:05:02.010Z,309
2023-04-02T17:07:16.349Z,309
2023-04-02T17:09:28.391Z,309
2023-04-02T17:11:42.642Z,309
2023-04-02T17:13:57.227Z,309
2023-04-02T17:16:10.831Z,309
2023-04-02T17:18:22.578Z,309
2023-04-02T17:20:35.580Z,309
2023-04-02T17:22:47.945Z,309
2023-04-02T17:25:02.040Z,309
2023-04-02T17:27:13.941Z,309
2023-04-02T17:29:26.288Z,309
2023-04-02T17:31:41.561Z,309
2023-04-02T17:34:11.617Z,309
2023-04-02T17:36:29.614Z,309
2023-04-02T17:38:40.323Z,309
2023-04-02T17:40:57.161Z,308
2023-04-02T17:43:08.112Z,309
2023-04-02T17:45:31.734Z,308
2023-04-02T17:47:42.929Z,309
2023-04-02T17:49:55.127Z,308
2023-04-02T17:52:10.197Z,308
2023-04-02T17:54:22.486Z,309
2023-04-02T17:56:36.044Z,308
2023-04-02T17:58:50.548Z,308
2023-04-02T18:01:07.836Z,308
2023-04-02T18:03:18.784Z,308
2023-04-02T18:05:42.528Z,308
2023-04-02T18:08:05.039Z,308
2023-04-02T18:10:16.537Z,308
2023-04-02T18:12:27.698Z,308
2023-04-02T18:14:45.556Z,308
2023-04-02T18:16:56.888Z,308
2023-04-02T18:19:08.865Z,308
2023-04-02T18:21:18.764Z,308
2023-04-02T18:23:33.009Z,308
2023-04-02T18:25:48.942Z,308
2023-04-02T18:28:01.045Z,308
2023-04-02T18:30:14.305Z,308
2023-04-02T18:32:43.905Z,308
2023-04-02T18:34:58.201Z,308
2023-04-02T18:37:20.495Z,308
2023-04-02T18:39:30.293Z,308
2023-04-02T18:41:41.873Z,308
2023-04-02T18:43:56.997Z,308
2023-04-02T18:46:11.888Z,308
2023-04-02T18:48:25.490Z,308
2023-04-02T18:50:37.188Z,308
2023-04-02T18:52:50.414Z,308
2023-04-02T18:55:03.616Z,307
2023-04-02T18:57:19.854Z,307
2023-04-02T18:59:41.429Z,308
2023-04-02T19:02:02.639Z,308
2023-04-02T19:04:15.607Z,307
2023-04-02T19:06:27.315Z,307
2023-04-02T19:08:39.233Z,307
2023-04-02T19:10:49.610Z,307
2023-04-02T19:13:05.637Z,307
2023-04-02T19:15:28.760Z,307
2023-04-02T19:17:41.851Z,307
2023-04-02T19:19:57.173Z,307
2023-04-02T19:22:11.059Z,307
2023-04-02T19:24:23.073Z,307
2023-04-02T19:26:35.080Z,307
2023-04-02T19:28:48.820Z,307
2023-04-02T19:31:03.005Z,307
2023-04-02T19:33:23.726Z,307
2023-04-02T19:35:41.796Z,307
2023-04-02T19:37:53.164Z,307
2023-04-02T19:40:08.832Z,307
2023-04-02T19:42:36.583Z,307
2023-04-02T19:44:55.078Z,307
2023-04-02T19:47:08.842Z,307
2023-04-02T19:49:29.725Z,307
2023-04-02T19:51:46.968Z,307
2023-04-02T19:54:12.191Z,307
2023-04-02T19:56:21.533Z,307
2023-04-02T19:58:38.920Z,307
2023-04-02T20:00:50.072Z,307
2023-04-02T20:03:03.335Z,307
2023-04-02T20:05:23.173Z,307
2023-04-02T20:07:33.327Z,306
2023-04-02T20:09:49.136Z,306
2023-04-02T20:12:14.357Z,306
2023-04-02T20:14:25.347Z,306
2023-04-02T20:16:40.043Z,291
2023-04-02T20:18:52.959Z,291
2023-04-02T20:21:03.133Z,300
2023-04-02T20:23:15.208Z,293
2023-04-02T20:25:32.165Z,298
2023-04-02T20:27:43.633Z,301
2023-04-02T20:29:55.698Z,301
2023-04-02T20:32:04.268Z,300
2023-04-02T20:34:12.727Z,286
2023-04-02T20:36:22.838Z,289
2023-04-02T20:38:34.027Z,268
2023-04-02T20:40:43.572Z,289
2023-04-02T20:42:55.522Z,294
2023-04-02T20:45:03.732Z,293
2023-04-02T20:47:11.964Z,280
2023-04-02T20:49:22.229Z,286
2023-04-02T20:51:53.559Z,290
2023-04-02T20:54:01.181Z,282
2023-04-02T20:56:09.214Z,282
2023-04-02T20:58:17.386Z,288
2023-04-02T21:00:25.474Z,265
2023-04-02T21:02:33.430Z,282
2023-04-02T21:04:41.724Z,282
2023-04-02T21:06:49.486Z,284
2023-04-02T21:08:56.549Z,285
2023-04-02T21:11:04.022Z,284
2023-04-02T21:13:12.257Z,282
2023-04-02T21:15:20.687Z,283
2023-04-02T21:17:28.522Z,274
2023-04-02T21:19:35.884Z,277
2023-04-02T21:21:42.959Z,276
2023-04-02T21:23:50.260Z,273
2023-04-02T21:25:58.594Z,281
2023-04-02T21:28:06.510Z,279
2023-04-02T21:30:15.272Z,283
2023-04-02T21:32:25.318Z,282
2023-04-02T21:34:31.567Z,282
2023-04-02T21:36:38.116Z,282
2023-04-02T21:38:45.278Z,282
2023-04-02T21:40:52.013Z,282
2023-04-02T21:42:59.208Z,282
2023-04-02T21:45:06.206Z,282
2023-04-02T21:47:13.938Z,282
2023-04-02T21:49:21.154Z,286
2023-04-02T21:51:29.160Z,284
2023-04-02T21:53:37.295Z,286
2023-04-02T21:55:44.956Z,286
2023-04-02T21:57:52.087Z,286
2023-04-02T21:59:59.384Z,288
2023-04-02T22:02:09.923Z,288
2023-04-02T22:04:18.086Z,289
2023-04-02T22:06:25.983Z,277
2023-04-02T22:08:33.452Z,283
2023-04-02T22:10:41.317Z,281
2023-04-02T22:12:47.964Z,282
2023-04-02T22:14:54.248Z,280
2023-04-02T22:17:02.402Z,281
2023-04-02T22:19:09.290Z,289
2023-04-02T22:21:16.161Z,289
2023-04-02T22:23:25.813Z,289
2023-04-02T22:25:33.077Z,290
2023-04-02T22:27:40.367Z,290
2023-04-02T22:29:47.039Z,290
2023-04-02T22:31:53.415Z,259
2023-04-02T22:34:00.139Z,291
2023-04-02T22:36:06.938Z,288
2023-04-02T22:38:13.210Z,288
2023-04-02T22:40:19.977Z,291
2023-04-02T22:42:26.119Z,276
2023-04-02T22:44:32.950Z,282
2023-04-02T22:46:39.981Z,264
2023-04-02T22:48:47.311Z,265
2023-04-02T22:50:53.857Z,280
2023-04-02T22:53:00.773Z,283
2023-04-02T22:55:07.920Z,283
2023-04-02T22:57:14.890Z,284
2023-04-02T22:59:21.708Z,285
2023-04-02T23:01:28.211Z,285
2023-04-02T23:03:35.276Z,284
2023-04-02T23:05:41.627Z,286
2023-04-02T23:07:49.132Z,285
2023-04-02T23:09:55.902Z,286
2023-04-02T23:12:02.502Z,286
2023-04-02T23:14:09.235Z,286
2023-04-02T23:16:15.701Z,284
2023-04-02T23:18:22.837Z,276
2023-04-02T23:20:29.588Z,289
2023-04-02T23:22:36.025Z,289
2023-04-02T23:24:43.009Z,286
2023-04-02T23:26:49.542Z,288
2023-04-02T23:28:55.818Z,279
2023-04-02T23:31:02.810Z,276
2023-04-02T23:33:10.403Z,276
2023-04-02T23:35:16.759Z,276
2023-04-02T23:37:23.083Z,276
2023-04-02T23:39:29.573Z,277
2023-04-02T23:41:36.209Z,278
2023-04-02T23:43:42.288Z,279
2023-04-02T23:45:49.004Z,278
2023-04-02T23:47:55.928Z,279
2023-04-02T23:50:02.430Z,280
2023-04-02T23:52:09.737Z,279
2023-04-02T23:54:17.541Z,279
2023-04-02T23:56:23.946Z,280
2023-04-02T23:58:30.400Z,282
